sensor_id;sensor_type;location;lat;lon;timestamp;P1;durP1;ratioP1;P2;durP2;ratioP2
46116;SDS011;32591;48.102;11.772;2022-11-14T00:00:24;14.57;;;5.90;;
46116;SDS011;32591;48.102;11.772;2022-11-14T00:02:53;8.75;;;6.10;;
46116;SDS011;32591;48.102;11.772;2022-11-14T00:05:20;8.32;;;5.05;;
46116;SDS011;32591;48.102;11.772;2022-11-14T00:10:14;8.48;;;5.13;;
46116;SDS011;32591;48.102;11.772;2022-11-14T00:12:42;7.55;;;5.15;;
46116;SDS011;32591;48.102;11.772;2022-11-14T00:15:09;7.75;;;4.82;;
46116;SDS011;32591;48.102;11.772;2022-11-14T00:17:39;12.90;;;5.50;;
46116;SDS011;32591;48.102;11.772;2022-11-14T00:20:06;25.05;;;5.82;;
46116;SDS011;32591;48.102;11.772;2022-11-14T00:22:35;17.60;;;5.47;;
46116;SDS011;32591;48.102;11.772;2022-11-14T00:25:03;7.97;;;5.07;;
46116;SDS011;32591;48.102;11.772;2022-11-14T00:27:31;7.47;;;5.10;;
46116;SDS011;32591;48.102;11.772;2022-11-14T00:32:25;8.27;;;4.97;;
46116;SDS011;32591;48.102;11.772;2022-11-14T00:34:53;6.78;;;5.25;;
46116;SDS011;32591;48.102;11.772;2022-11-14T00:37:20;10.50;;;4.97;;
46116;SDS011;32591;48.102;11.772;2022-11-14T00:39:47;8.10;;;5.05;;
46116;SDS011;32591;48.102;11.772;2022-11-14T00:44:41;8.43;;;4.95;;
46116;SDS011;32591;48.102;11.772;2022-11-14T00:47:08;6.40;;;4.65;;
46116;SDS011;32591;48.102;11.772;2022-11-14T00:49:35;7.15;;;5.70;;
46116;SDS011;32591;48.102;11.772;2022-11-14T00:54:31;9.93;;;4.72;;
46116;SDS011;32591;48.102;11.772;2022-11-14T00:59:24;9.18;;;5.30;;
46116;SDS011;32591;48.102;11.772;2022-11-14T01:04:18;7.97;;;5.18;;
46116;SDS011;32591;48.102;11.772;2022-11-14T01:06:45;6.53;;;4.40;;
46116;SDS011;32591;48.102;11.772;2022-11-14T01:14:07;5.85;;;4.20;;
46116;SDS011;32591;48.102;11.772;2022-11-14T01:16:34;6.65;;;4.63;;
46116;SDS011;32591;48.102;11.772;2022-11-14T01:21:28;6.00;;;4.13;;
46116;SDS011;32591;48.102;11.772;2022-11-14T01:23:56;6.40;;;4.10;;
46116;SDS011;32591;48.102;11.772;2022-11-14T01:26:25;19.60;;;4.93;;
46116;SDS011;32591;48.102;11.772;2022-11-14T01:28:52;6.28;;;4.03;;
46116;SDS011;32591;48.102;11.772;2022-11-14T01:31:20;7.85;;;4.57;;
46116;SDS011;32591;48.102;11.772;2022-11-14T01:33:49;6.40;;;3.97;;
46116;SDS011;32591;48.102;11.772;2022-11-14T01:36:17;6.95;;;4.47;;
46116;SDS011;32591;48.102;11.772;2022-11-14T01:38:45;5.00;;;3.45;;
46116;SDS011;32591;48.102;11.772;2022-11-14T01:41:13;4.65;;;3.35;;
46116;SDS011;32591;48.102;11.772;2022-11-14T01:43:43;6.97;;;3.75;;
46116;SDS011;32591;48.102;11.772;2022-11-14T01:46:11;4.82;;;3.65;;
46116;SDS011;32591;48.102;11.772;2022-11-14T01:48:41;5.57;;;3.63;;
46116;SDS011;32591;48.102;11.772;2022-11-14T01:51:16;5.28;;;3.63;;
46116;SDS011;32591;48.102;11.772;2022-11-14T01:53:50;5.82;;;3.67;;
46116;SDS011;32591;48.102;11.772;2022-11-14T01:56:20;3.53;;;2.88;;
46116;SDS011;32591;48.102;11.772;2022-11-14T01:58:54;5.47;;;4.30;;
46116;SDS011;32591;48.102;11.772;2022-11-14T02:01:26;6.80;;;3.92;;
46116;SDS011;32591;48.102;11.772;2022-11-14T02:03:56;5.05;;;3.65;;
46116;SDS011;32591;48.102;11.772;2022-11-14T02:06:26;3.95;;;2.95;;
46116;SDS011;32591;48.102;11.772;2022-11-14T02:08:56;4.93;;;3.90;;
46116;SDS011;32591;48.102;11.772;2022-11-14T02:11:27;4.03;;;3.13;;
46116;SDS011;32591;48.102;11.772;2022-11-14T02:13:58;3.92;;;3.20;;
46116;SDS011;32591;48.102;11.772;2022-11-14T02:16:25;3.80;;;2.70;;
46116;SDS011;32591;48.102;11.772;2022-11-14T02:18:53;4.65;;;3.00;;
46116;SDS011;32591;48.102;11.772;2022-11-14T02:21:21;4.50;;;3.05;;
46116;SDS011;32591;48.102;11.772;2022-11-14T02:23:48;4.57;;;3.63;;
46116;SDS011;32591;48.102;11.772;2022-11-14T02:26:16;4.78;;;3.80;;
46116;SDS011;32591;48.102;11.772;2022-11-14T02:28:44;4.30;;;3.53;;
46116;SDS011;32591;48.102;11.772;2022-11-14T02:31:12;4.40;;;3.10;;
46116;SDS011;32591;48.102;11.772;2022-11-14T02:33:39;3.85;;;3.15;;
46116;SDS011;32591;48.102;11.772;2022-11-14T02:36:07;4.00;;;2.92;;
46116;SDS011;32591;48.102;11.772;2022-11-14T02:38:36;3.80;;;2.58;;
46116;SDS011;32591;48.102;11.772;2022-11-14T02:41:03;4.13;;;2.92;;
46116;SDS011;32591;48.102;11.772;2022-11-14T02:43:30;5.05;;;3.40;;
46116;SDS011;32591;48.102;11.772;2022-11-14T02:45:57;4.63;;;2.90;;
46116;SDS011;32591;48.102;11.772;2022-11-14T02:50:51;4.55;;;3.17;;
46116;SDS011;32591;48.102;11.772;2022-11-14T02:55:46;5.38;;;3.65;;
46116;SDS011;32591;48.102;11.772;2022-11-14T02:58:13;5.53;;;3.67;;
46116;SDS011;32591;48.102;11.772;2022-11-14T03:03:07;4.55;;;3.10;;
46116;SDS011;32591;48.102;11.772;2022-11-14T03:08:01;7.13;;;4.05;;
46116;SDS011;32591;48.102;11.772;2022-11-14T03:10:28;5.63;;;3.90;;
46116;SDS011;32591;48.102;11.772;2022-11-14T03:12:56;6.28;;;3.92;;
46116;SDS011;32591;48.102;11.772;2022-11-14T03:15:23;7.00;;;3.95;;
46116;SDS011;32591;48.102;11.772;2022-11-14T03:17:50;4.18;;;3.65;;
46116;SDS011;32591;48.102;11.772;2022-11-14T03:20:17;8.13;;;3.78;;
46116;SDS011;32591;48.102;11.772;2022-11-14T03:22:45;5.32;;;3.65;;
46116;SDS011;32591;48.102;11.772;2022-11-14T03:27:41;6.50;;;3.72;;
46116;SDS011;32591;48.102;11.772;2022-11-14T03:32:37;6.60;;;3.45;;
46116;SDS011;32591;48.102;11.772;2022-11-14T03:37:33;5.72;;;3.45;;
46116;SDS011;32591;48.102;11.772;2022-11-14T03:40:00;5.50;;;3.90;;
46116;SDS011;32591;48.102;11.772;2022-11-14T03:42:27;6.35;;;3.65;;
46116;SDS011;32591;48.102;11.772;2022-11-14T03:47:22;5.20;;;3.47;;
46116;SDS011;32591;48.102;11.772;2022-11-14T03:49:49;6.75;;;3.70;;
46116;SDS011;32591;48.102;11.772;2022-11-14T03:52:16;6.30;;;3.40;;
46116;SDS011;32591;48.102;11.772;2022-11-14T03:54:44;5.60;;;3.35;;
46116;SDS011;32591;48.102;11.772;2022-11-14T03:57:11;4.93;;;3.35;;
46116;SDS011;32591;48.102;11.772;2022-11-14T04:02:05;4.47;;;3.38;;
46116;SDS011;32591;48.102;11.772;2022-11-14T04:04:34;4.38;;;3.38;;
46116;SDS011;32591;48.102;11.772;2022-11-14T04:07:01;4.93;;;3.58;;
46116;SDS011;32591;48.102;11.772;2022-11-14T04:11:55;4.32;;;3.17;;
46116;SDS011;32591;48.102;11.772;2022-11-14T04:16:48;4.28;;;3.00;;
46116;SDS011;32591;48.102;11.772;2022-11-14T04:21:43;4.45;;;3.13;;
46116;SDS011;32591;48.102;11.772;2022-11-14T04:24:10;5.22;;;3.40;;
46116;SDS011;32591;48.102;11.772;2022-11-14T04:29:04;6.57;;;3.38;;
46116;SDS011;32591;48.102;11.772;2022-11-14T04:33:58;3.88;;;2.67;;
46116;SDS011;32591;48.102;11.772;2022-11-14T04:36:25;4.43;;;3.03;;
46116;SDS011;32591;48.102;11.772;2022-11-14T04:38:53;4.78;;;2.92;;
46116;SDS011;32591;48.102;11.772;2022-11-14T04:41:20;4.60;;;3.20;;
46116;SDS011;32591;48.102;11.772;2022-11-14T04:43:47;3.78;;;2.92;;
46116;SDS011;32591;48.102;11.772;2022-11-14T04:48:41;5.20;;;2.97;;
46116;SDS011;32591;48.102;11.772;2022-11-14T04:53:35;3.67;;;2.75;;
46116;SDS011;32591;48.102;11.772;2022-11-14T04:56:04;3.65;;;2.63;;
46116;SDS011;32591;48.102;11.772;2022-11-14T04:58:31;4.60;;;3.00;;
46116;SDS011;32591;48.102;11.772;2022-11-14T05:03:25;3.33;;;2.33;;
46116;SDS011;32591;48.102;11.772;2022-11-14T05:08:19;4.82;;;2.38;;
46116;SDS011;32591;48.102;11.772;2022-11-14T05:13:14;4.10;;;2.92;;
46116;SDS011;32591;48.102;11.772;2022-11-14T05:15:41;4.32;;;2.85;;
46116;SDS011;32591;48.102;11.772;2022-11-14T05:20:35;3.77;;;2.67;;
46116;SDS011;32591;48.102;11.772;2022-11-14T05:23:02;4.35;;;2.92;;
46116;SDS011;32591;48.102;11.772;2022-11-14T05:25:29;4.65;;;2.95;;
46116;SDS011;32591;48.102;11.772;2022-11-14T05:30:24;5.47;;;3.15;;
46116;SDS011;32591;48.102;11.772;2022-11-14T05:32:51;4.03;;;2.67;;
46116;SDS011;32591;48.102;11.772;2022-11-14T05:37:45;5.53;;;2.75;;
46116;SDS011;32591;48.102;11.772;2022-11-14T05:42:41;4.13;;;2.65;;
46116;SDS011;32591;48.102;11.772;2022-11-14T05:45:08;4.78;;;3.28;;
46116;SDS011;32591;48.102;11.772;2022-11-14T05:47:37;5.53;;;3.17;;
46116;SDS011;32591;48.102;11.772;2022-11-14T05:50:04;4.72;;;3.13;;
46116;SDS011;32591;48.102;11.772;2022-11-14T05:52:32;5.63;;;4.00;;
46116;SDS011;32591;48.102;11.772;2022-11-14T05:54:59;7.15;;;3.60;;
46116;SDS011;32591;48.102;11.772;2022-11-14T05:59:53;5.57;;;4.20;;
46116;SDS011;32591;48.102;11.772;2022-11-14T06:02:20;7.53;;;4.32;;
46116;SDS011;32591;48.102;11.772;2022-11-14T06:07:15;6.85;;;4.47;;
46116;SDS011;32591;48.102;11.772;2022-11-14T06:09:42;7.50;;;4.25;;
46116;SDS011;32591;48.102;11.772;2022-11-14T06:12:09;6.55;;;3.78;;
46116;SDS011;32591;48.102;11.772;2022-11-14T06:17:03;7.97;;;4.45;;
46116;SDS011;32591;48.102;11.772;2022-11-14T06:19:31;5.40;;;3.92;;
46116;SDS011;32591;48.102;11.772;2022-11-14T06:24:26;5.05;;;3.65;;
46116;SDS011;32591;48.102;11.772;2022-11-14T06:26:53;6.25;;;3.63;;
46116;SDS011;32591;48.102;11.772;2022-11-14T06:31:47;4.72;;;3.20;;
46116;SDS011;32591;48.102;11.772;2022-11-14T06:36:41;4.82;;;2.95;;
46116;SDS011;32591;48.102;11.772;2022-11-14T06:44:02;4.15;;;3.50;;
46116;SDS011;32591;48.102;11.772;2022-11-14T06:46:32;4.75;;;3.25;;
46116;SDS011;32591;48.102;11.772;2022-11-14T06:51:26;4.40;;;3.42;;
46116;SDS011;32591;48.102;11.772;2022-11-14T06:56:21;5.88;;;3.65;;
46116;SDS011;32591;48.102;11.772;2022-11-14T06:58:48;5.90;;;3.95;;
46116;SDS011;32591;48.102;11.772;2022-11-14T07:01:16;7.50;;;4.65;;
46116;SDS011;32591;48.102;11.772;2022-11-14T07:03:44;9.80;;;4.63;;
46116;SDS011;32591;48.102;11.772;2022-11-14T07:06:13;5.45;;;4.15;;
46116;SDS011;32591;48.102;11.772;2022-11-14T07:08:42;6.55;;;4.00;;
46116;SDS011;32591;48.102;11.772;2022-11-14T07:11:10;5.43;;;3.65;;
46116;SDS011;32591;48.102;11.772;2022-11-14T07:13:48;4.55;;;3.53;;
46116;SDS011;32591;48.102;11.772;2022-11-14T07:16:15;6.13;;;3.50;;
46116;SDS011;32591;48.102;11.772;2022-11-14T07:18:42;5.60;;;3.55;;
46116;SDS011;32591;48.102;11.772;2022-11-14T07:21:09;6.10;;;3.72;;
46116;SDS011;32591;48.102;11.772;2022-11-14T07:23:37;5.88;;;4.25;;
46116;SDS011;32591;48.102;11.772;2022-11-14T07:26:05;4.88;;;3.50;;
46116;SDS011;32591;48.102;11.772;2022-11-14T07:28:35;6.78;;;4.05;;
46116;SDS011;32591;48.102;11.772;2022-11-14T07:31:06;5.35;;;3.50;;
46116;SDS011;32591;48.102;11.772;2022-11-14T07:33:37;8.48;;;4.22;;
46116;SDS011;32591;48.102;11.772;2022-11-14T07:36:06;5.88;;;4.10;;
46116;SDS011;32591;48.102;11.772;2022-11-14T07:38:34;4.80;;;3.70;;
46116;SDS011;32591;48.102;11.772;2022-11-14T07:41:03;6.03;;;3.80;;
46116;SDS011;32591;48.102;11.772;2022-11-14T07:43:32;5.53;;;3.80;;
46116;SDS011;32591;48.102;11.772;2022-11-14T07:48:27;4.63;;;3.50;;
46116;SDS011;32591;48.102;11.772;2022-11-14T07:50:57;6.57;;;3.67;;
46116;SDS011;32591;48.102;11.772;2022-11-14T07:53:25;7.70;;;4.25;;
46116;SDS011;32591;48.102;11.772;2022-11-14T07:55:52;5.95;;;4.00;;
46116;SDS011;32591;48.102;11.772;2022-11-14T07:58:19;6.28;;;3.95;;
46116;SDS011;32591;48.102;11.772;2022-11-14T08:00:46;7.85;;;4.15;;
46116;SDS011;32591;48.102;11.772;2022-11-14T08:05:41;5.32;;;3.55;;
46116;SDS011;32591;48.102;11.772;2022-11-14T08:08:08;6.40;;;4.05;;
46116;SDS011;32591;48.102;11.772;2022-11-14T08:13:03;8.13;;;4.13;;
46116;SDS011;32591;48.102;11.772;2022-11-14T08:15:32;6.13;;;4.47;;
46116;SDS011;32591;48.102;11.772;2022-11-14T08:17:59;7.30;;;5.07;;
46116;SDS011;32591;48.102;11.772;2022-11-14T08:20:27;5.78;;;4.40;;
46116;SDS011;32591;48.102;11.772;2022-11-14T08:23:01;6.93;;;4.82;;
46116;SDS011;32591;48.102;11.772;2022-11-14T08:25:29;8.73;;;4.88;;
46116;SDS011;32591;48.102;11.772;2022-11-14T08:27:56;7.88;;;5.50;;
46116;SDS011;32591;48.102;11.772;2022-11-14T08:30:23;12.63;;;7.13;;
46116;SDS011;32591;48.102;11.772;2022-11-14T08:32:51;11.35;;;6.43;;
46116;SDS011;32591;48.102;11.772;2022-11-14T08:35:18;9.10;;;5.72;;
46116;SDS011;32591;48.102;11.772;2022-11-14T08:37:45;7.72;;;5.60;;
46116;SDS011;32591;48.102;11.772;2022-11-14T08:42:41;8.10;;;5.50;;
46116;SDS011;32591;48.102;11.772;2022-11-14T08:45:08;6.15;;;4.80;;
46116;SDS011;32591;48.102;11.772;2022-11-14T08:47:35;8.02;;;4.65;;
46116;SDS011;32591;48.102;11.772;2022-11-14T08:50:03;6.28;;;4.55;;
46116;SDS011;32591;48.102;11.772;2022-11-14T08:52:30;7.13;;;4.95;;
46116;SDS011;32591;48.102;11.772;2022-11-14T08:57:26;5.43;;;3.88;;
46116;SDS011;32591;48.102;11.772;2022-11-14T08:59:53;8.77;;;4.93;;
46116;SDS011;32591;48.102;11.772;2022-11-14T09:02:20;7.60;;;4.70;;
46116;SDS011;32591;48.102;11.772;2022-11-14T09:07:14;7.90;;;4.43;;
46116;SDS011;32591;48.102;11.772;2022-11-14T09:09:41;5.25;;;3.90;;
46116;SDS011;32591;48.102;11.772;2022-11-14T09:12:08;6.43;;;4.22;;
46116;SDS011;32591;48.102;11.772;2022-11-14T09:17:03;8.75;;;4.40;;
46116;SDS011;32591;48.102;11.772;2022-11-14T09:19:31;6.05;;;4.47;;
46116;SDS011;32591;48.102;11.772;2022-11-14T09:24:24;8.35;;;5.18;;
46116;SDS011;32591;48.102;11.772;2022-11-14T09:26:52;9.35;;;6.13;;
46116;SDS011;32591;48.102;11.772;2022-11-14T09:29:19;13.00;;;6.65;;
46116;SDS011;32591;48.102;11.772;2022-11-14T09:34:16;11.57;;;6.50;;
46116;SDS011;32591;48.102;11.772;2022-11-14T09:36:43;8.75;;;5.50;;
46116;SDS011;32591;48.102;11.772;2022-11-14T09:39:11;8.57;;;5.22;;
46116;SDS011;32591;48.102;11.772;2022-11-14T09:41:41;8.02;;;4.72;;
46116;SDS011;32591;48.102;11.772;2022-11-14T09:44:35;8.43;;;6.18;;
46116;SDS011;32591;48.102;11.772;2022-11-14T09:47:24;8.52;;;6.05;;
46116;SDS011;32591;48.102;11.772;2022-11-14T09:49:58;9.57;;;6.50;;
46116;SDS011;32591;48.102;11.772;2022-11-14T09:52:34;9.25;;;6.75;;
46116;SDS011;32591;48.102;11.772;2022-11-14T09:55:08;10.63;;;5.68;;
46116;SDS011;32591;48.102;11.772;2022-11-14T09:57:38;8.52;;;5.43;;
46116;SDS011;32591;48.102;11.772;2022-11-14T10:00:12;9.75;;;6.18;;
46116;SDS011;32591;48.102;11.772;2022-11-14T10:02:45;9.15;;;5.85;;
46116;SDS011;32591;48.102;11.772;2022-11-14T10:05:32;5.82;;;4.85;;
46116;SDS011;32591;48.102;11.772;2022-11-14T10:08:18;7.82;;;4.72;;
46116;SDS011;32591;48.102;11.772;2022-11-14T10:11:14;8.43;;;5.03;;
46116;SDS011;32591;48.102;11.772;2022-11-14T10:13:53;7.90;;;5.38;;
46116;SDS011;32591;48.102;11.772;2022-11-14T10:16:56;8.30;;;5.32;;
46116;SDS011;32591;48.102;11.772;2022-11-14T10:19:39;8.23;;;5.55;;
46116;SDS011;32591;48.102;11.772;2022-11-14T10:22:14;9.40;;;4.97;;
46116;SDS011;32591;48.102;11.772;2022-11-14T10:25:09;8.25;;;5.05;;
46116;SDS011;32591;48.102;11.772;2022-11-14T10:27:51;10.23;;;5.47;;
46116;SDS011;32591;48.102;11.772;2022-11-14T10:30:33;7.43;;;5.45;;
46116;SDS011;32591;48.102;11.772;2022-11-14T10:33:11;8.02;;;4.60;;
46116;SDS011;32591;48.102;11.772;2022-11-14T10:35:54;5.85;;;4.18;;
46116;SDS011;32591;48.102;11.772;2022-11-14T10:38:28;4.97;;;3.60;;
46116;SDS011;32591;48.102;11.772;2022-11-14T10:41:00;5.55;;;3.75;;
46116;SDS011;32591;48.102;11.772;2022-11-14T10:43:31;5.47;;;3.75;;
46116;SDS011;32591;48.102;11.772;2022-11-14T10:46:04;5.75;;;4.13;;
46116;SDS011;32591;48.102;11.772;2022-11-14T10:48:37;7.75;;;3.63;;
46116;SDS011;32591;48.102;11.772;2022-11-14T10:51:13;6.50;;;4.05;;
46116;SDS011;32591;48.102;11.772;2022-11-14T10:53:49;5.55;;;3.63;;
46116;SDS011;32591;48.102;11.772;2022-11-14T10:56:20;6.82;;;3.65;;
46116;SDS011;32591;48.102;11.772;2022-11-14T10:58:48;7.25;;;4.03;;
46116;SDS011;32591;48.102;11.772;2022-11-14T11:01:30;7.18;;;4.35;;
46116;SDS011;32591;48.102;11.772;2022-11-14T11:04:10;9.55;;;4.15;;
46116;SDS011;32591;48.102;11.772;2022-11-14T11:06:52;5.95;;;4.32;;
46116;SDS011;32591;48.102;11.772;2022-11-14T11:09:21;6.50;;;4.18;;
46116;SDS011;32591;48.102;11.772;2022-11-14T11:12:08;5.57;;;4.43;;
46116;SDS011;32591;48.102;11.772;2022-11-14T11:14:42;5.80;;;4.10;;
46116;SDS011;32591;48.102;11.772;2022-11-14T11:17:17;6.75;;;4.35;;
46116;SDS011;32591;48.102;11.772;2022-11-14T11:19:47;7.05;;;3.78;;
46116;SDS011;32591;48.102;11.772;2022-11-14T11:22:27;6.85;;;4.10;;
46116;SDS011;32591;48.102;11.772;2022-11-14T11:25:00;6.55;;;4.38;;
46116;SDS011;32591;48.102;11.772;2022-11-14T11:27:28;7.35;;;5.25;;
46116;SDS011;32591;48.102;11.772;2022-11-14T11:30:03;7.45;;;4.55;;
46116;SDS011;32591;48.102;11.772;2022-11-14T11:32:44;6.47;;;4.60;;
46116;SDS011;32591;48.102;11.772;2022-11-14T11:35:12;7.47;;;4.60;;
46116;SDS011;32591;48.102;11.772;2022-11-14T11:37:43;6.78;;;4.95;;
46116;SDS011;32591;48.102;11.772;2022-11-14T11:40:19;7.45;;;4.63;;
46116;SDS011;32591;48.102;11.772;2022-11-14T11:42:51;7.93;;;3.95;;
46116;SDS011;32591;48.102;11.772;2022-11-14T11:45:24;5.63;;;4.43;;
46116;SDS011;32591;48.102;11.772;2022-11-14T11:47:54;8.60;;;4.57;;
46116;SDS011;32591;48.102;11.772;2022-11-14T11:50:24;7.68;;;4.90;;
46116;SDS011;32591;48.102;11.772;2022-11-14T11:52:55;7.90;;;4.80;;
46116;SDS011;32591;48.102;11.772;2022-11-14T11:55:36;6.63;;;4.43;;
46116;SDS011;32591;48.102;11.772;2022-11-14T11:58:11;8.63;;;4.85;;
46116;SDS011;32591;48.102;11.772;2022-11-14T12:00:46;6.80;;;4.65;;
46116;SDS011;32591;48.102;11.772;2022-11-14T12:03:16;6.68;;;4.60;;
46116;SDS011;32591;48.102;11.772;2022-11-14T12:05:45;6.95;;;5.13;;
46116;SDS011;32591;48.102;11.772;2022-11-14T12:08:25;5.57;;;4.35;;
46116;SDS011;32591;48.102;11.772;2022-11-14T12:10:58;6.47;;;4.50;;
46116;SDS011;32591;48.102;11.772;2022-11-14T12:16:58;10.45;;;6.60;;
46116;SDS011;32591;48.102;11.772;2022-11-14T12:20:03;10.48;;;8.13;;
46116;SDS011;32591;48.102;11.772;2022-11-14T12:22:54;13.80;;;7.90;;
46116;SDS011;32591;48.102;11.772;2022-11-14T12:25:47;10.63;;;7.70;;
46116;SDS011;32591;48.102;11.772;2022-11-14T12:28:35;11.93;;;7.90;;
46116;SDS011;32591;48.102;11.772;2022-11-14T12:31:17;13.18;;;8.00;;
46116;SDS011;32591;48.102;11.772;2022-11-14T12:33:46;11.20;;;7.28;;
46116;SDS011;32591;48.102;11.772;2022-11-14T12:36:24;13.93;;;8.43;;
46116;SDS011;32591;48.102;11.772;2022-11-14T12:38:54;11.13;;;6.95;;
46116;SDS011;32591;48.102;11.772;2022-11-14T12:41:24;10.80;;;6.35;;
46116;SDS011;32591;48.102;11.772;2022-11-14T12:52:59;8.52;;;5.95;;
46116;SDS011;32591;48.102;11.772;2022-11-14T13:01:44;7.38;;;4.90;;
46116;SDS011;32591;48.102;11.772;2022-11-14T13:04:28;6.00;;;4.45;;
46116;SDS011;32591;48.102;11.772;2022-11-14T13:07:14;6.15;;;4.20;;
46116;SDS011;32591;48.102;11.772;2022-11-14T13:09:53;6.20;;;4.22;;
46116;SDS011;32591;48.102;11.772;2022-11-14T13:12:40;6.65;;;5.03;;
46116;SDS011;32591;48.102;11.772;2022-11-14T13:15:30;6.35;;;4.70;;
46116;SDS011;32591;48.102;11.772;2022-11-14T13:18:19;6.85;;;5.28;;
46116;SDS011;32591;48.102;11.772;2022-11-14T13:21:14;6.88;;;4.32;;
46116;SDS011;32591;48.102;11.772;2022-11-14T13:24:03;8.27;;;5.18;;
46116;SDS011;32591;48.102;11.772;2022-11-14T13:35:25;6.93;;;4.68;;
46116;SDS011;32591;48.102;11.772;2022-11-14T13:41:32;7.53;;;4.45;;
46116;SDS011;32591;48.102;11.772;2022-11-14T13:50:58;10.30;;;5.57;;
46116;SDS011;32591;48.102;11.772;2022-11-14T13:53:29;8.32;;;5.68;;
46116;SDS011;32591;48.102;11.772;2022-11-14T13:56:04;7.60;;;5.57;;
46116;SDS011;32591;48.102;11.772;2022-11-14T13:58:53;8.77;;;5.53;;
46116;SDS011;32591;48.102;11.772;2022-11-14T14:01:50;7.15;;;4.75;;
46116;SDS011;32591;48.102;11.772;2022-11-14T14:04:39;9.75;;;6.47;;
46116;SDS011;32591;48.102;11.772;2022-11-14T14:07:20;8.48;;;5.93;;
46116;SDS011;32591;48.102;11.772;2022-11-14T14:10:00;11.27;;;7.90;;
46116;SDS011;32591;48.102;11.772;2022-11-14T14:12:40;10.88;;;8.13;;
46116;SDS011;32591;48.102;11.772;2022-11-14T14:15:26;9.93;;;6.68;;
46116;SDS011;32591;48.102;11.772;2022-11-14T14:18:01;9.68;;;6.05;;
46116;SDS011;32591;48.102;11.772;2022-11-14T14:20:41;11.45;;;6.78;;
46116;SDS011;32591;48.102;11.772;2022-11-14T14:23:18;9.23;;;6.00;;
46116;SDS011;32591;48.102;11.772;2022-11-14T14:25:59;10.63;;;7.47;;
46116;SDS011;32591;48.102;11.772;2022-11-14T14:28:38;12.80;;;6.95;;
46116;SDS011;32591;48.102;11.772;2022-11-14T14:31:17;12.23;;;6.95;;
46116;SDS011;32591;48.102;11.772;2022-11-14T14:33:48;9.80;;;6.53;;
46116;SDS011;32591;48.102;11.772;2022-11-14T14:36:20;10.02;;;7.20;;
46116;SDS011;32591;48.102;11.772;2022-11-14T14:38:50;9.40;;;6.60;;
46116;SDS011;32591;48.102;11.772;2022-11-14T14:41:32;9.55;;;6.32;;
46116;SDS011;32591;48.102;11.772;2022-11-14T14:44:00;9.43;;;7.22;;
46116;SDS011;32591;48.102;11.772;2022-11-14T14:46:28;9.30;;;6.60;;
46116;SDS011;32591;48.102;11.772;2022-11-14T14:48:57;9.38;;;6.78;;
46116;SDS011;32591;48.102;11.772;2022-11-14T14:51:30;8.43;;;6.68;;
46116;SDS011;32591;48.102;11.772;2022-11-14T14:54:00;7.55;;;5.78;;
46116;SDS011;32591;48.102;11.772;2022-11-14T14:56:27;7.93;;;5.28;;
46116;SDS011;32591;48.102;11.772;2022-11-14T14:58:55;7.65;;;5.47;;
46116;SDS011;32591;48.102;11.772;2022-11-14T15:01:22;8.57;;;5.82;;
46116;SDS011;32591;48.102;11.772;2022-11-14T15:03:56;7.95;;;6.15;;
46116;SDS011;32591;48.102;11.772;2022-11-14T15:06:28;8.80;;;5.80;;
46116;SDS011;32591;48.102;11.772;2022-11-14T15:09:01;10.20;;;6.30;;
46116;SDS011;32591;48.102;11.772;2022-11-14T15:11:36;9.95;;;5.70;;
46116;SDS011;32591;48.102;11.772;2022-11-14T15:14:08;9.23;;;6.15;;
46116;SDS011;32591;48.102;11.772;2022-11-14T15:16:39;8.48;;;6.18;;
46116;SDS011;32591;48.102;11.772;2022-11-14T15:19:08;10.60;;;6.82;;
46116;SDS011;32591;48.102;11.772;2022-11-14T15:21:40;9.07;;;5.85;;
46116;SDS011;32591;48.102;11.772;2022-11-14T15:24:12;10.73;;;5.97;;
46116;SDS011;32591;48.102;11.772;2022-11-14T15:26:43;8.43;;;5.70;;
46116;SDS011;32591;48.102;11.772;2022-11-14T15:29:15;9.18;;;6.15;;
46116;SDS011;32591;48.102;11.772;2022-11-14T15:31:45;9.45;;;6.03;;
46116;SDS011;32591;48.102;11.772;2022-11-14T15:34:22;9.75;;;6.07;;
46116;SDS011;32591;48.102;11.772;2022-11-14T15:39:47;8.73;;;5.93;;
46116;SDS011;32591;48.102;11.772;2022-11-14T15:42:16;10.27;;;6.57;;
46116;SDS011;32591;48.102;11.772;2022-11-14T15:44:46;14.10;;;7.80;;
46116;SDS011;32591;48.102;11.772;2022-11-14T15:47:17;13.15;;;8.55;;
46116;SDS011;32591;48.102;11.772;2022-11-14T15:49:50;12.95;;;8.18;;
46116;SDS011;32591;48.102;11.772;2022-11-14T15:52:25;16.25;;;9.05;;
46116;SDS011;32591;48.102;11.772;2022-11-14T15:54:57;12.85;;;8.88;;
46116;SDS011;32591;48.102;11.772;2022-11-14T15:57:24;14.35;;;9.25;;
46116;SDS011;32591;48.102;11.772;2022-11-14T15:59:51;13.45;;;8.57;;
46116;SDS011;32591;48.102;11.772;2022-11-14T16:02:19;11.10;;;7.95;;
46116;SDS011;32591;48.102;11.772;2022-11-14T16:04:49;12.27;;;9.13;;
46116;SDS011;32591;48.102;11.772;2022-11-14T16:07:17;14.35;;;8.50;;
46116;SDS011;32591;48.102;11.772;2022-11-14T16:09:46;12.80;;;7.72;;
46116;SDS011;32591;48.102;11.772;2022-11-14T16:12:13;13.52;;;7.68;;
46116;SDS011;32591;48.102;11.772;2022-11-14T16:14:40;14.50;;;8.10;;
46116;SDS011;32591;48.102;11.772;2022-11-14T16:17:10;13.45;;;8.13;;
46116;SDS011;32591;48.102;11.772;2022-11-14T16:19:39;13.25;;;8.50;;
46116;SDS011;32591;48.102;11.772;2022-11-14T16:22:07;12.60;;;7.00;;
46116;SDS011;32591;48.102;11.772;2022-11-14T16:24:37;10.43;;;6.35;;
46116;SDS011;32591;48.102;11.772;2022-11-14T16:27:06;10.82;;;6.80;;
46116;SDS011;32591;48.102;11.772;2022-11-14T16:29:34;9.23;;;5.88;;
46116;SDS011;32591;48.102;11.772;2022-11-14T16:32:01;9.00;;;5.57;;
46116;SDS011;32591;48.102;11.772;2022-11-14T16:34:28;8.45;;;5.50;;
46116;SDS011;32591;48.102;11.772;2022-11-14T16:36:56;7.10;;;4.88;;
46116;SDS011;32591;48.102;11.772;2022-11-14T16:39:24;6.65;;;5.07;;
46116;SDS011;32591;48.102;11.772;2022-11-14T16:41:52;7.43;;;5.20;;
46116;SDS011;32591;48.102;11.772;2022-11-14T16:44:26;7.85;;;4.50;;
46116;SDS011;32591;48.102;11.772;2022-11-14T16:46:53;11.02;;;5.15;;
46116;SDS011;32591;48.102;11.772;2022-11-14T16:49:20;7.32;;;4.55;;
46116;SDS011;32591;48.102;11.772;2022-11-14T16:51:47;8.10;;;5.20;;
46116;SDS011;32591;48.102;11.772;2022-11-14T16:54:15;8.52;;;5.32;;
46116;SDS011;32591;48.102;11.772;2022-11-14T16:56:43;8.82;;;5.50;;
46116;SDS011;32591;48.102;11.772;2022-11-14T16:59:10;7.80;;;5.43;;
46116;SDS011;32591;48.102;11.772;2022-11-14T17:01:39;8.77;;;5.80;;
46116;SDS011;32591;48.102;11.772;2022-11-14T17:04:06;10.63;;;6.30;;
46116;SDS011;32591;48.102;11.772;2022-11-14T17:06:33;8.80;;;6.90;;
46116;SDS011;32591;48.102;11.772;2022-11-14T17:09:00;12.57;;;7.80;;
46116;SDS011;32591;48.102;11.772;2022-11-14T17:11:27;10.27;;;7.05;;
46116;SDS011;32591;48.102;11.772;2022-11-14T17:13:54;11.55;;;7.40;;
46116;SDS011;32591;48.102;11.772;2022-11-14T17:16:22;10.65;;;7.45;;
46116;SDS011;32591;48.102;11.772;2022-11-14T17:18:51;11.95;;;7.45;;
46116;SDS011;32591;48.102;11.772;2022-11-14T17:21:20;11.98;;;7.50;;
46116;SDS011;32591;48.102;11.772;2022-11-14T17:23:52;11.27;;;7.18;;
46116;SDS011;32591;48.102;11.772;2022-11-14T17:26:20;11.07;;;7.30;;
46116;SDS011;32591;48.102;11.772;2022-11-14T17:28:48;10.95;;;7.03;;
46116;SDS011;32591;48.102;11.772;2022-11-14T17:31:15;15.02;;;7.97;;
46116;SDS011;32591;48.102;11.772;2022-11-14T17:33:42;11.98;;;7.40;;
46116;SDS011;32591;48.102;11.772;2022-11-14T17:36:17;9.95;;;6.45;;
46116;SDS011;32591;48.102;11.772;2022-11-14T17:38:44;10.00;;;5.40;;